sensor_id;sensor_type;location;lat;lon;timestamp;pressure;altitude;pressure_sealevel;temperature;humidity
22241;BME280;11289;52.524;13.694;2023-03-09T00:00:43;98831.91;;;0.52;87.74
22241;BME280;11289;52.524;13.694;2023-03-09T00:03:09;98841.38;;;0.55;87.46
22241;BME280;11289;52.524;13.694;2023-03-09T00:05:41;98841.50;;;0.50;87.64
22241;BME280;11289;52.524;13.694;2023-03-09T00:08:07;98839.09;;;0.48;87.52
22241;BME280;11289;52.524;13.694;2023-03-09T00:10:32;98846.53;;;0.57;87.76
22241;BME280;11289;52.524;13.694;2023-03-09T00:12:58;98840.09;;;0.52;87.60
22241;BME280;11289;52.524;13.694;2023-03-09T00:15:23;98837.53;;;0.56;87.29
22241;BME280;11289;52.524;13.694;2023-03-09T00:17:49;98850.88;;;0.58;87.20
22241;BME280;11289;52.524;13.694;2023-03-09T00:20:15;98851.31;;;0.51;87.02
22241;BME280;11289;52.524;13.694;2023-03-09T00:22:46;98846.44;;;0.48;87.05
22241;BME280;11289;52.524;13.694;2023-03-09T00:25:13;98847.16;;;0.54;87.08
22241;BME280;11289;52.524;13.694;2023-03-09T00:27:42;98852.13;;;0.51;86.61
22241;BME280;11289;52.524;13.694;2023-03-09T00:30:09;98856.16;;;0.54;86.76
22241;BME280;11289;52.524;13.694;2023-03-09T00:32:35;98854.47;;;0.44;86.79
22241;BME280;11289;52.524;13.694;2023-03-09T00:35:00;98842.13;;;0.33;86.94
22241;BME280;11289;52.524;13.694;2023-03-09T00:37:26;98852.84;;;0.43;87.21
22241;BME280;11289;52.524;13.694;2023-03-09T00:39:51;98843.06;;;0.42;87.10
22241;BME280;11289;52.524;13.694;2023-03-09T00:42:16;98845.56;;;0.39;87.16
22241;BME280;11289;52.524;13.694;2023-03-09T00:44:42;98826.88;;;0.32;87.60
22241;BME280;11289;52.524;13.694;2023-03-09T00:47:07;98846.38;;;0.39;87.46
22241;BME280;11289;52.524;13.694;2023-03-09T00:49:32;98850.53;;;0.37;87.58
22241;BME280;11289;52.524;13.694;2023-03-09T00:51:58;98854.38;;;0.36;87.45
22241;BME280;11289;52.524;13.694;2023-03-09T00:54:23;98858.44;;;0.38;87.56
22241;BME280;11289;52.524;13.694;2023-03-09T00:56:48;98854.56;;;0.39;87.67
22241;BME280;11289;52.524;13.694;2023-03-09T00:59:14;98854.56;;;0.39;86.75
22241;BME280;11289;52.524;13.694;2023-03-09T01:01:40;98861.84;;;0.44;87.07
22241;BME280;11289;52.524;13.694;2023-03-09T01:04:05;98854.78;;;0.43;86.87
22241;BME280;11289;52.524;13.694;2023-03-09T01:06:31;98859.13;;;0.44;86.61
22241;BME280;11289;52.524;13.694;2023-03-09T01:08:56;98849.09;;;0.39;86.76
22241;BME280;11289;52.524;13.694;2023-03-09T01:11:22;98854.94;;;0.46;87.06
22241;BME280;11289;52.524;13.694;2023-03-09T01:13:47;98834.97;;;0.37;86.50
22241;BME280;11289;52.524;13.694;2023-03-09T01:16:13;98832.63;;;0.44;86.66
22241;BME280;11289;52.524;13.694;2023-03-09T01:18:39;98827.16;;;0.44;86.85
22241;BME280;11289;52.524;13.694;2023-03-09T01:21:05;98826.53;;;0.47;86.51
22241;BME280;11289;52.524;13.694;2023-03-09T01:23:30;98824.44;;;0.44;86.55
22241;BME280;11289;52.524;13.694;2023-03-09T01:25:56;98818.47;;;0.42;86.63
22241;BME280;11289;52.524;13.694;2023-03-09T01:28:21;98812.50;;;0.40;86.51
22241;BME280;11289;52.524;13.694;2023-03-09T01:30:47;98801.72;;;0.35;86.36
22241;BME280;11289;52.524;13.694;2023-03-09T01:33:12;98812.31;;;0.37;86.95
22241;BME280;11289;52.524;13.694;2023-03-09T01:35:39;98831.31;;;0.42;86.91
22241;BME280;11289;52.524;13.694;2023-03-09T01:38:05;98827.25;;;0.39;86.75
22241;BME280;11289;52.524;13.694;2023-03-09T01:40:30;98821.00;;;0.39;86.78
22241;BME280;11289;52.524;13.694;2023-03-09T01:43:24;98828.09;;;0.40;86.65
22241;BME280;11289;52.524;13.694;2023-03-09T01:48:41;98799.88;;;0.30;86.82
22241;BME280;11289;52.524;13.694;2023-03-09T01:51:07;98789.88;;;0.26;86.65
22241;BME280;11289;52.524;13.694;2023-03-09T01:53:32;98803.91;;;0.33;87.09
22241;BME280;11289;52.524;13.694;2023-03-09T01:55:59;98811.63;;;0.31;87.17
22241;BME280;11289;52.524;13.694;2023-03-09T01:58:28;98805.22;;;0.36;87.27
22241;BME280;11289;52.524;13.694;2023-03-09T02:00:55;98803.59;;;0.34;87.38
22241;BME280;11289;52.524;13.694;2023-03-09T02:03:25;98801.72;;;0.35;87.36
22241;BME280;11289;52.524;13.694;2023-03-09T02:05:57;98803.00;;;0.38;87.55
22241;BME280;11289;52.524;13.694;2023-03-09T02:08:27;98797.22;;;0.39;87.58
22241;BME280;11289;52.524;13.694;2023-03-09T02:11:00;98787.44;;;0.38;87.55
22241;BME280;11289;52.524;13.694;2023-03-09T02:13:31;98782.22;;;0.28;87.48
22241;BME280;11289;52.524;13.694;2023-03-09T02:15:57;98772.81;;;0.20;87.45
22241;BME280;11289;52.524;13.694;2023-03-09T02:18:23;98768.25;;;0.15;87.88
22241;BME280;11289;52.524;13.694;2023-03-09T02:21:01;98802.81;;;0.34;87.87
22241;BME280;11289;52.524;13.694;2023-03-09T02:23:44;98806.16;;;0.31;88.07
22241;BME280;11289;52.524;13.694;2023-03-09T02:26:18;98809.28;;;0.24;88.24
22241;BME280;11289;52.524;13.694;2023-03-09T02:28:46;98803.03;;;0.24;88.46
22241;BME280;11289;52.524;13.694;2023-03-09T02:31:13;98798.69;;;0.23;88.46
22241;BME280;11289;52.524;13.694;2023-03-09T02:33:39;98786.84;;;0.27;88.33
22241;BME280;11289;52.524;13.694;2023-03-09T02:36:05;98763.31;;;0.17;88.31
22241;BME280;11289;52.524;13.694;2023-03-09T02:38:31;98765.75;;;0.19;88.44
22241;BME280;11289;52.524;13.694;2023-03-09T02:41:03;98787.03;;;0.31;88.42
22241;BME280;11289;52.524;13.694;2023-03-09T02:43:33;98760.78;;;0.07;88.03
22241;BME280;11289;52.524;13.694;2023-03-09T02:45:59;98765.84;;;0.14;87.94
22241;BME280;11289;52.524;13.694;2023-03-09T02:48:24;98759.69;;;0.08;88.45
22241;BME280;11289;52.524;13.694;2023-03-09T02:50:50;98768.88;;;0.12;88.21
22241;BME280;11289;52.524;13.694;2023-03-09T02:53:15;98762.09;;;0.10;88.51
22241;BME280;11289;52.524;13.694;2023-03-09T02:55:41;98750.31;;;0.01;88.72
22241;BME280;11289;52.524;13.694;2023-03-09T02:58:06;98766.88;;;0.04;88.85
22241;BME280;11289;52.524;13.694;2023-03-09T03:00:31;98769.28;;;0.06;88.98
22241;BME280;11289;52.524;13.694;2023-03-09T03:02:57;98730.72;;;-0.15;88.71
22241;BME280;11289;52.524;13.694;2023-03-09T03:05:22;98768.31;;;0.02;88.64
22241;BME280;11289;52.524;13.694;2023-03-09T03:07:47;98743.28;;;-0.14;88.55
22241;BME280;11289;52.524;13.694;2023-03-09T03:10:15;98752.13;;;-0.09;88.81
22241;BME280;11289;52.524;13.694;2023-03-09T03:12:41;98762.03;;;0.01;89.19
22241;BME280;11289;52.524;13.694;2023-03-09T03:15:09;98767.00;;;-0.01;89.06
22241;BME280;11289;52.524;13.694;2023-03-09T03:17:34;98772.44;;;-0.01;89.31
22241;BME280;11289;52.524;13.694;2023-03-09T03:20:00;98758.41;;;-0.08;89.04
22241;BME280;11289;52.524;13.694;2023-03-09T03:22:28;98753.66;;;-0.03;89.29
22241;BME280;11289;52.524;13.694;2023-03-09T03:24:54;98745.25;;;-0.06;89.56
22241;BME280;11289;52.524;13.694;2023-03-09T03:27:19;98761.22;;;0.01;88.94
22241;BME280;11289;52.524;13.694;2023-03-09T03:29:44;98755.63;;;0.06;88.94
22241;BME280;11289;52.524;13.694;2023-03-09T03:32:11;98757.19;;;-0.02;89.16
22241;BME280;11289;52.524;13.694;2023-03-09T03:34:36;98758.41;;;-0.08;89.14
22241;BME280;11289;52.524;13.694;2023-03-09T03:37:01;98751.72;;;-0.02;89.00
22241;BME280;11289;52.524;13.694;2023-03-09T03:39:27;98750.41;;;-0.05;89.28
22241;BME280;11289;52.524;13.694;2023-03-09T03:41:52;98731.44;;;-0.24;89.70
22241;BME280;11289;52.524;13.694;2023-03-09T03:44:17;98759.22;;;-0.08;89.63
22241;BME280;11289;52.524;13.694;2023-03-09T03:46:43;98745.47;;;-0.16;89.76
22241;BME280;11289;52.524;13.694;2023-03-09T03:49:08;98744.25;;;-0.10;89.46
22241;BME280;11289;52.524;13.694;2023-03-09T03:51:34;98750.00;;;-0.12;89.70
22241;BME280;11289;52.524;13.694;2023-03-09T03:53:59;98755.16;;;-0.10;89.84
22241;BME280;11289;52.524;13.694;2023-03-09T03:56:25;98744.06;;;-0.14;90.16
22241;BME280;11289;52.524;13.694;2023-03-09T03:58:50;98747.09;;;-0.15;89.73
22241;BME280;11289;52.524;13.694;2023-03-09T04:01:15;98742.66;;;-0.25;90.22
22241;BME280;11289;52.524;13.694;2023-03-09T04:03:41;98742.56;;;-0.20;90.04
22241;BME280;11289;52.524;13.694;2023-03-09T04:06:06;98732.53;;;-0.25;90.29
22241;BME280;11289;52.524;13.694;2023-03-09T04:08:32;98724.09;;;-0.23;90.58
22241;BME280;11289;52.524;13.694;2023-03-09T04:10:58;98725.50;;;-0.26;90.60
22241;BME280;11289;52.524;13.694;2023-03-09T04:13:24;98730.81;;;-0.21;90.41
22241;BME280;11289;52.524;13.694;2023-03-09T04:15:49;98728.53;;;-0.27;90.81
22241;BME280;11289;52.524;13.694;2023-03-09T04:18:15;98732.28;;;-0.23;90.93
22241;BME280;11289;52.524;13.694;2023-03-09T04:20:41;98733.56;;;-0.21;91.28
22241;BME280;11289;52.524;13.694;2023-03-09T04:23:08;98730.81;;;-0.21;91.11
22241;BME280;11289;52.524;13.694;2023-03-09T04:25:35;98724.47;;;-0.30;91.13
22241;BME280;11289;52.524;13.694;2023-03-09T04:28:00;98718.63;;;-0.37;91.44
22241;BME280;11289;52.524;13.694;2023-03-09T04:30:26;98725.50;;;-0.26;91.13
22241;BME280;11289;52.524;13.694;2023-03-09T04:32:51;98721.16;;;-0.27;91.33
22241;BME280;11289;52.524;13.694;2023-03-09T04:35:17;98713.34;;;-0.33;91.26
22241;BME280;11289;52.524;13.694;2023-03-09T04:37:42;98715.69;;;-0.27;91.76
22241;BME280;11289;52.524;13.694;2023-03-09T04:40:12;98729.53;;;-0.23;91.49
22241;BME280;11289;52.524;13.694;2023-03-09T04:42:38;98724.09;;;-0.23;91.13
22241;BME280;11289;52.524;13.694;2023-03-09T04:45:04;98716.19;;;-0.25;91.16
22241;BME280;11289;52.524;13.694;2023-03-09T04:47:30;98731.66;;;-0.20;91.22
22241;BME280;11289;52.524;13.694;2023-03-09T04:49:55;98741.25;;;-0.23;90.99
22241;BME280;11289;52.524;13.694;2023-03-09T04:52:21;98735.19;;;-0.20;91.16
22241;BME280;11289;52.524;13.694;2023-03-09T04:54:47;98732.94;;;-0.18;91.32
22241;BME280;11289;52.524;13.694;2023-03-09T04:57:14;98743.56;;;-0.16;91.35
22241;BME280;11289;52.524;13.694;2023-03-09T04:59:39;98740.22;;;-0.13;91.10
22241;BME280;11289;52.524;13.694;2023-03-09T05:02:05;98747.59;;;-0.13;90.93
22241;BME280;11289;52.524;13.694;2023-03-09T05:04:30;98717.00;;;-0.24;91.16
22241;BME280;11289;52.524;13.694;2023-03-09T05:06:56;98729.81;;;-0.25;91.09
22241;BME280;11289;52.524;13.694;2023-03-09T05:09:21;98708.81;;;-0.38;90.93
22241;BME280;11289;52.524;13.694;2023-03-09T05:11:47;98737.81;;;-0.14;91.01
22241;BME280;11289;52.524;13.694;2023-03-09T05:14:17;98756.00;;;-0.10;90.68
22241;BME280;11289;52.524;13.694;2023-03-09T05:16:42;98721.25;;;-0.32;90.25
22241;BME280;11289;52.524;13.694;2023-03-09T05:19:09;98750.84;;;-0.11;90.66
22241;BME280;11289;52.524;13.694;2023-03-09T05:21:35;98743.28;;;-0.14;90.43
22241;BME280;11289;52.524;13.694;2023-03-09T05:24:00;98750.53;;;-0.10;90.28
22241;BME280;11289;52.524;13.694;2023-03-09T05:26:26;98752.88;;;-0.17;90.54
22241;BME280;11289;52.524;13.694;2023-03-09T05:28:52;98763.88;;;-0.08;90.45
22241;BME280;11289;52.524;13.694;2023-03-09T05:31:18;98759.50;;;-0.09;90.32
22241;BME280;11289;52.524;13.694;2023-03-09T05:33:43;98769.81;;;-0.06;90.37
22241;BME280;11289;52.524;13.694;2023-03-09T05:36:20;98785.09;;;-0.05;90.32
22241;BME280;11289;52.524;13.694;2023-03-09T05:38:47;98769.72;;;-0.15;90.14
22241;BME280;11289;52.524;13.694;2023-03-09T05:41:12;98776.19;;;-0.11;90.86
22241;BME280;11289;52.524;13.694;2023-03-09T05:43:38;98778.59;;;-0.09;90.35
22241;BME280;11289;52.524;13.694;2023-03-09T05:46:07;98775.41;;;-0.11;90.66
22241;BME280;11289;52.524;13.694;2023-03-09T05:48:34;98769.09;;;-0.12;90.21
22241;BME280;11289;52.524;13.694;2023-03-09T05:51:00;98785.56;;;-0.03;90.42
22241;BME280;11289;52.524;13.694;2023-03-09T05:53:25;98778.59;;;-0.09;90.51
22241;BME280;11289;52.524;13.694;2023-03-09T05:55:52;98793.25;;;-0.05;90.11
22241;BME280;11289;52.524;13.694;2023-03-09T05:58:18;98779.31;;;-0.18;89.99
22241;BME280;11289;52.524;13.694;2023-03-09T06:00:43;98780.22;;;-0.08;90.08
22241;BME280;11289;52.524;13.694;2023-03-09T06:03:09;98798.00;;;0.03;90.49
22241;BME280;11289;52.524;13.694;2023-03-09T06:05:34;98794.28;;;-0.01;90.33
22241;BME280;11289;52.524;13.694;2023-03-09T06:08:00;98796.00;;;-0.05;90.03
22241;BME280;11289;52.524;13.694;2023-03-09T06:10:25;98798.72;;;-0.05;90.02
22241;BME280;11289;52.524;13.694;2023-03-09T06:12:51;98801.75;;;-0.07;90.20
22241;BME280;11289;52.524;13.694;2023-03-09T06:15:16;98805.28;;;-0.06;90.18
22241;BME280;11289;52.524;13.694;2023-03-09T06:17:41;98818.22;;;0.02;90.50
22241;BME280;11289;52.524;13.694;2023-03-09T06:20:08;98825.59;;;0.02;90.19
22241;BME280;11289;52.524;13.694;2023-03-09T06:22:34;98833.97;;;0.05;90.20
22241;BME280;11289;52.524;13.694;2023-03-09T06:24:59;98828.13;;;-0.02;90.13
22241;BME280;11289;52.524;13.694;2023-03-09T06:27:25;98807.50;;;-0.22;89.88
22241;BME280;11289;52.524;13.694;2023-03-09T06:29:52;98822.06;;;-0.13;90.51
22241;BME280;11289;52.524;13.694;2023-03-09T06:32:19;98837.31;;;-0.12;89.96
22241;BME280;11289;52.524;13.694;2023-03-09T06:34:44;98821.44;;;-0.24;90.38
22241;BME280;11289;52.524;13.694;2023-03-09T06:37:09;98835.00;;;-0.19;90.37
22241;BME280;11289;52.524;13.694;2023-03-09T06:39:34;98839.84;;;-0.15;90.31
22241;BME280;11289;52.524;13.694;2023-03-09T06:42:00;98844.91;;;-0.23;90.22
22241;BME280;11289;52.524;13.694;2023-03-09T06:44:25;98863.31;;;-0.14;90.65
22241;BME280;11289;52.524;13.694;2023-03-09T06:46:51;98846.22;;;-0.20;90.05
22241;BME280;11289;52.524;13.694;2023-03-09T06:49:16;98854.91;;;-0.18;90.23
22241;BME280;11289;52.524;13.694;2023-03-09T06:51:41;98866.91;;;-0.19;90.52
22241;BME280;11289;52.524;13.694;2023-03-09T06:54:07;98870.97;;;-0.16;90.25
22241;BME280;11289;52.524;13.694;2023-03-09T06:56:32;98870.53;;;-0.24;90.04
22241;BME280;11289;52.524;13.694;2023-03-09T06:58:58;98881.69;;;-0.20;90.50
22241;BME280;11289;52.524;13.694;2023-03-09T07:01:23;98892.41;;;-0.10;90.56
22241;BME280;11289;52.524;13.694;2023-03-09T07:03:48;98892.41;;;-0.10;90.46
22241;BME280;11289;52.524;13.694;2023-03-09T07:06:14;98901.06;;;-0.08;90.02
22241;BME280;11289;52.524;13.694;2023-03-09T07:08:39;98902.91;;;-0.03;89.70
22241;BME280;11289;52.524;13.694;2023-03-09T07:11:04;98894.28;;;-0.10;89.43
22241;BME280;11289;52.524;13.694;2023-03-09T07:13:30;98902.31;;;0.00;89.40
22241;BME280;11289;52.524;13.694;2023-03-09T07:15:57;98897.75;;;-0.05;89.61
22241;BME280;11289;52.524;13.694;2023-03-09T07:18:22;98911.09;;;-0.03;88.83
22241;BME280;11289;52.524;13.694;2023-03-09T07:20:47;98928.69;;;0.05;89.21
22241;BME280;11289;52.524;13.694;2023-03-09T07:23:13;98939.63;;;0.05;88.82
22241;BME280;11289;52.524;13.694;2023-03-09T07:25:39;98950.22;;;0.06;88.74
22241;BME280;11289;52.524;13.694;2023-03-09T07:28:06;98948.00;;;0.08;88.67
22241;BME280;11289;52.524;13.694;2023-03-09T07:30:32;98946.78;;;0.01;88.24
22241;BME280;11289;52.524;13.694;2023-03-09T07:32:59;98956.06;;;-0.01;87.84
22241;BME280;11289;52.524;13.694;2023-03-09T07:35:25;98971.53;;;0.04;88.17
22241;BME280;11289;52.524;13.694;2023-03-09T07:37:51;98959.50;;;0.05;88.94
22241;BME280;11289;52.524;13.694;2023-03-09T07:40:16;98969.75;;;0.13;88.49
22241;BME280;11289;52.524;13.694;2023-03-09T07:42:42;98969.22;;;0.11;88.28
22241;BME280;11289;52.524;13.694;2023-03-09T07:45:08;98977.94;;;0.13;87.28
22241;BME280;11289;52.524;13.694;2023-03-09T07:47:34;98955.97;;;0.05;87.78
22241;BME280;11289;52.524;13.694;2023-03-09T07:50:00;98980.53;;;0.19;87.79
22241;BME280;11289;52.524;13.694;2023-03-09T07:52:26;98983.88;;;0.15;87.09
22241;BME280;11289;52.524;13.694;2023-03-09T07:54:58;98982.97;;;0.06;86.84
22241;BME280;11289;52.524;13.694;2023-03-09T07:57:24;98992.97;;;0.11;87.14
22241;BME280;11289;52.524;13.694;2023-03-09T07:59:54;98996.72;;;0.15;87.39
22241;BME280;11289;52.524;13.694;2023-03-09T08:02:20;98999.16;;;0.16;87.35
22241;BME280;11289;52.524;13.694;2023-03-09T08:04:45;99000.69;;;0.23;87.36
22241;BME280;11289;52.524;13.694;2023-03-09T08:07:11;98999.34;;;0.20;87.00
22241;BME280;11289;52.524;13.694;2023-03-09T08:09:36;99003.72;;;0.21;86.90
22241;BME280;11289;52.524;13.694;2023-03-09T08:12:03;99012.91;;;0.25;86.80
22241;BME280;11289;52.524;13.694;2023-03-09T08:14:28;99003.41;;;0.23;86.74
22241;BME280;11289;52.524;13.694;2023-03-09T08:16:54;99009.78;;;0.32;86.75
22241;BME280;11289;52.524;13.694;2023-03-09T08:19:19;99024.44;;;0.36;86.04
22241;BME280;11289;52.524;13.694;2023-03-09T08:21:47;99016.38;;;0.31;85.86
22241;BME280;11289;52.524;13.694;2023-03-09T08:24:12;99025.28;;;0.37;86.06
22241;BME280;11289;52.524;13.694;2023-03-09T08:26:38;99021.41;;;0.38;86.10
22241;BME280;11289;52.524;13.694;2023-03-09T08:29:03;99044.09;;;0.38;86.00
22241;BME280;11289;52.524;13.694;2023-03-09T08:31:29;99058.47;;;0.44;86.00
22241;BME280;11289;52.524;13.694;2023-03-09T08:33:54;99068.06;;;0.41;85.33
22241;BME280;11289;52.524;13.694;2023-03-09T08:36:20;99068.84;;;0.42;85.69
22241;BME280;11289;52.524;13.694;2023-03-09T08:38:46;99077.06;;;0.42;85.49
22241;BME280;11289;52.524;13.694;2023-03-09T08:41:13;99074.00;;;0.43;85.63
22241;BME280;11289;52.524;13.694;2023-03-09T08:43:38;99074.94;;;0.39;86.02
22241;BME280;11289;52.524;13.694;2023-03-09T08:46:04;99077.88;;;0.42;85.60
22241;BME280;11289;52.524;13.694;2023-03-09T08:48:29;99063.59;;;0.31;86.05
22241;BME280;11289;52.524;13.694;2023-03-09T08:50:55;99071.59;;;0.42;85.58
22241;BME280;11289;52.524;13.694;2023-03-09T08:53:22;99069.69;;;0.42;85.53
22241;BME280;11289;52.524;13.694;2023-03-09T08:55:47;99074.00;;;0.43;86.27
22241;BME280;11289;52.524;13.694;2023-03-09T08:58:12;99082.75;;;0.45;86.00
22241;BME280;11289;52.524;13.694;2023-03-09T09:00:38;99075.22;;;0.37;85.57
22241;BME280;11289;52.524;13.694;2023-03-09T09:03:04;99084.03;;;0.34;85.77
22241;BME280;11289;52.524;13.694;2023-03-09T09:05:30;99087.97;;;0.42;85.88
22241;BME280;11289;52.524;13.694;2023-03-09T09:07:56;99083.13;;;0.39;85.88
22241;BME280;11289;52.524;13.694;2023-03-09T09:10:21;99049.31;;;0.21;85.90
22241;BME280;11289;52.524;13.694;2023-03-09T09:12:46;99085.25;;;0.42;86.16
22241;BME280;11289;52.524;13.694;2023-03-09T09:15:12;99098.28;;;0.45;86.39
22241;BME280;11289;52.524;13.694;2023-03-09T09:17:39;99103.03;;;0.39;85.82
22241;BME280;11289;52.524;13.694;2023-03-09T09:20:05;99104.97;;;0.39;85.94
22241;BME280;11289;52.524;13.694;2023-03-09T09:22:31;99109.22;;;0.45;86.26
22241;BME280;11289;52.524;13.694;2023-03-09T09:24:56;99123.59;;;0.50;86.33
22241;BME280;11289;52.524;13.694;2023-03-09T09:27:21;99121.69;;;0.51;86.00
22241;BME280;11289;52.524;13.694;2023-03-09T09:29:47;99114.91;;;0.48;85.95
22241;BME280;11289;52.524;13.694;2023-03-09T09:32:12;99124.72;;;0.49;85.91
22241;BME280;11289;52.524;13.694;2023-03-09T09:34:38;99121.28;;;0.44;85.67
22241;BME280;11289;52.524;13.694;2023-03-09T09:37:04;99140.41;;;0.58;85.91
22241;BME280;11289;52.524;13.694;2023-03-09T09:39:32;99144.84;;;0.54;85.35
22241;BME280;11289;52.524;13.694;2023-03-09T09:42:03;99137.66;;;0.44;85.74
22241;BME280;11289;52.524;13.694;2023-03-09T09:44:34;99153.63;;;0.50;85.69
22241;BME280;11289;52.524;13.694;2023-03-09T09:47:03;99137.72;;;0.39;86.01
22241;BME280;11289;52.524;13.694;2023-03-09T09:49:31;99148.94;;;0.37;85.79
22241;BME280;11289;52.524;13.694;2023-03-09T09:55:23;99166.88;;;0.43;85.80
22241;BME280;11289;52.524;13.694;2023-03-09T09:57:43;99165.75;;;0.44;85.57
22241;BME280;11289;52.524;13.694;2023-03-09T10:00:15;99161.41;;;0.43;85.90
22241;BME280;11289;52.524;13.694;2023-03-09T10:10:54;99181.03;;;0.45;85.95
22241;BME280;11289;52.524;13.694;2023-03-09T10:13:30;99171.81;;;0.41;86.02
22241;BME280;11289;52.524;13.694;2023-03-09T10:16:01;99172.31;;;0.43;85.96
22241;BME280;11289;52.524;13.694;2023-03-09T10:18:34;99164.84;;;0.49;86.44
22241;BME280;11289;52.524;13.694;2023-03-09T10:21:03;99169.53;;;0.48;86.02
22241;BME280;11289;52.524;13.694;2023-03-09T10:23:33;99185.31;;;0.51;85.51
22241;BME280;11289;52.524;13.694;2023-03-09T10:26:14;99183.38;;;0.52;86.06
22241;BME280;11289;52.524;13.694;2023-03-09T10:28:43;99189.97;;;0.51;85.45
22241;BME280;11289;52.524;13.694;2023-03-09T10:31:19;99197.25;;;0.56;85.59
22241;BME280;11289;52.524;13.694;2023-03-09T10:33:50;99204.31;;;0.57;85.84
22241;BME280;11289;52.524;13.694;2023-03-09T10:36:27;99212.03;;;0.55;85.52
22241;BME280;11289;52.524;13.694;2023-03-09T10:38:55;99222.94;;;0.55;85.68
22241;BME280;11289;52.524;13.694;2023-03-09T10:41:22;99220.72;;;0.57;85.36
22241;BME280;11289;52.524;13.694;2023-03-09T10:43:48;99219.53;;;0.63;85.61
22241;BME280;11289;52.524;13.694;2023-03-09T10:46:19;99225.50;;;0.65;85.80
22241;BME280;11289;52.524;13.694;2023-03-09T10:48:47;99214.75;;;0.55;85.22
22241;BME280;11289;52.524;13.694;2023-03-09T10:51:53;99243.53;;;0.66;85.59
22241;BME280;11289;52.524;13.694;2023-03-09T10:54:23;99240.78;;;0.66;85.59
22241;BME280;11289;52.524;13.694;2023-03-09T10:56:50;99240.78;;;0.66;85.74
22241;BME280;11289;52.524;13.694;2023-03-09T10:59:22;99250.09;;;0.65;85.64
22241;BME280;11289;52.524;13.694;2023-03-09T11:01:53;99244.44;;;0.61;85.23
22241;BME280;11289;52.524;13.694;2023-03-09T11:17:41;99255.50;;;0.70;85.62
22241;BME280;11289;52.524;13.694;2023-03-09T11:26:17;99264.19;;;0.72;85.87
22241;BME280;11289;52.524;13.694;2023-03-09T11:28:59;99268.53;;;0.73;85.89
22241;BME280;11289;52.524;13.694;2023-03-09T11:31:38;99272.63;;;0.76;86.13
22241;BME280;11289;52.524;13.694;2023-03-09T11:34:14;99272.38;;;0.72;85.83
22241;BME280;11289;52.524;13.694;2023-03-09T11:39:21;99269.94;;;0.71;85.86
22241;BME280;11289;52.524;13.694;2023-03-09T11:41:50;99271.22;;;0.59;85.58
22241;BME280;11289;52.524;13.694;2023-03-09T11:44:41;99287.75;;;0.68;85.69
22241;BME280;11289;52.524;13.694;2023-03-09T11:47:36;99286.13;;;0.67;85.81
22241;BME280;11289;52.524;13.694;2023-03-09T11:50:14;99281.78;;;0.66;85.89
22241;BME280;11289;52.524;13.694;2023-03-09T11:53:05;99280.69;;;0.67;86.07
22241;BME280;11289;52.524;13.694;2023-03-09T11:55:38;99291.50;;;0.72;86.83
22241;BME280;11289;52.524;13.694;2023-03-09T11:58:10;99295.34;;;0.71;86.42
22241;BME280;11289;52.524;13.694;2023-03-09T12:00:41;99285.53;;;0.70;86.98
22241;BME280;11289;52.524;13.694;2023-03-09T12:03:11;99291.75;;;0.76;86.96
22241;BME280;11289;52.524;13.694;2023-03-09T12:05:41;99289.81;;;0.76;86.86
22241;BME280;11289;52.524;13.694;2023-03-09T12:08:18;99293.88;;;0.79;86.87
22241;BME280;11289;52.524;13.694;2023-03-09T12:13:31;99297.41;;;0.79;86.95
22241;BME280;11289;52.524;13.694;2023-03-09T12:21:39;99299.09;;;0.75;87.78
22241;BME280;11289;52.524;13.694;2023-03-09T12:24:36;99301.53;;;0.77;88.11
22241;BME280;11289;52.524;13.694;2023-03-09T12:27:19;99302.06;;;0.79;88.05
22241;BME280;11289;52.524;13.694;2023-03-09T12:30:05;99293.03;;;0.78;88.21
22241;BME280;11289;52.524;13.694;2023-03-09T12:32:39;99285.38;;;0.80;88.68
22241;BME280;11289;52.524;13.694;2023-03-09T12:37:53;99295.59;;;0.89;88.92
22241;BME280;11289;52.524;13.694;2023-03-09T12:40:31;99288.59;;;0.82;88.58
22241;BME280;11289;52.524;13.694;2023-03-09T12:45:50;99297.78;;;0.92;88.85
22241;BME280;11289;52.524;13.694;2023-03-09T12:48:22;99310.44;;;1.01;89.02
22241;BME280;11289;52.524;13.694;2023-03-09T12:53:22;99303.88;;;1.02;89.03
22241;BME280;11289;52.524;13.694;2023-03-09T12:55:54;99306.53;;;1.08;88.83
22241;BME280;11289;52.524;13.694;2023-03-09T13:00:52;99312.56;;;1.04;88.41
22241;BME280;11289;52.524;13.694;2023-03-09T13:03:23;99306.91;;;1.01;88.21
22241;BME280;11289;52.524;13.694;2023-03-09T13:05:51;99307.69;;;1.01;88.61
22241;BME280;11289;52.524;13.694;2023-03-09T13:08:35;99311.75;;;1.04;89.02
22241;BME280;11289;52.524;13.694;2023-03-09T13:13:55;99312.78;;;1.08;89.12
22241;BME280;11289;52.524;13.694;2023-03-09T13:21:46;99316.72;;;1.02;89.01
22241;BME280;11289;52.524;13.694;2023-03-09T13:29:34;99316.81;;;0.97;89.63
22241;BME280;11289;52.524;13.694;2023-03-09T13:32:01;99320.28;;;1.02;89.73
22241;BME280;11289;52.524;13.694;2023-03-09T13:34:31;99322.81;;;0.99;89.42
22241;BME280;11289;52.524;13.694;2023-03-09T13:37:05;99324.09;;;1.01;89.29
22241;BME280;11289;52.524;13.694;2023-03-09T13:39:32;99310.31;;;0.93;89.77
22241;BME280;11289;52.524;13.694;2023-03-09T13:42:02;99328.75;;;1.01;89.75
22241;BME280;11289;52.524;13.694;2023-03-09T13:44:29;99327.13;;;1.00;89.57
22241;BME280;11289;52.524;13.694;2023-03-09T13:46:57;99318.75;;;0.96;89.49
22241;BME280;11289;52.524;13.694;2023-03-09T13:49:31;99317.09;;;0.95;89.89
22241;BME280;11289;52.524;13.694;2023-03-09T13:52:12;99322.28;;;0.97;89.84
22241;BME280;11289;52.524;13.694;2023-03-09T13:54:51;99325.53;;;0.99;89.91
22241;BME280;11289;52.524;13.694;2023-03-09T13:57:32;99342.44;;;1.01;90.08
22241;BME280;11289;52.524;13.694;2023-03-09T14:02:39;99340.72;;;1.05;89.83
22241;BME280;11289;52.524;13.694;2023-03-09T14:05:24;99342.38;;;1.06;89.93
22241;BME280;11289;52.524;13.694;2023-03-09T14:07:53;99342.94;;;1.03;89.75
22241;BME280;11289;52.524;13.694;2023-03-09T14:10:26;99340.00;;;0.99;90.06
22241;BME280;11289;52.524;13.694;2023-03-09T14:12:53;99343.97;;;1.07;90.38